Terminal Aerodrome Forecast
Issued by NWS

Home | Current Version | Previous Version | Text Only | Print | Product List | Glossary On
Versions: 1 2 3 4 5 6 7 8 9 10 11 12 13 14 15 16 17
000
FTUS44 KLIX 231740
TAFMSY
TAF
KMSY 231740Z 2318/2418 18012KT P6SM VCSH BKN025
     FM231900 20011KT P6SM VCSH BKN045
      TEMPO 2319/2323 4SM -TSRA OVC025CB
     FM240100 19007KT P6SM BKN070
     FM240900 19006KT P6SM BKN025
     FM241600 19012KT P6SM VCSH BKN035=

USA.gov is the U.S. government's official web portal to all federal, state and local government web resources and services.